Time;durP1;ratioP1;P1;durP2;ratioP2;P2;SDS_P1;SDS_P2;PMS_P1;PMS_P2;Temp;Humidity;BMP_temperature;BMP_pressure;BME280_temperature;BME280_humidity;BME280_pressure;Samples;Min_cycle;Max_cycle;Signal;HPM_P1;HPM_P2
2024/01/07 00:01:49;;;;;;;20.20;10.70;;;;;;;-5.93;82.30;100632.88;111358;242;39130;-55
2024/01/07 00:04:29;;;;;;;20.70;10.60;;;;;;;-5.94;82.26;100629.94;111300;242;38912;-53
2024/01/07 00:07:09;;;;;;;18.70;9.80;;;;;;;-5.96;82.36;100630.77;111284;242;40196;-56
2024/01/07 00:09:49;;;;;;;19.60;10.70;;;;;;;-5.99;82.33;100631.61;111268;242;39089;-53
2024/01/07 00:12:24;;;;;;;18.80;11.50;;;;;;;-6.05;82.54;100631.92;111271;242;39508;-53
2024/01/07 00:15:01;;;;;;;19.80;10.10;;;;;;;-6.08;82.44;100632.44;111267;242;39236;-53
2024/01/07 00:17:40;;;;;;;19.10;10.10;;;;;;;-6.14;82.54;100633.08;111265;242;39657;-53
2024/01/07 00:20:15;;;;;;;18.40;10.40;;;;;;;-6.15;82.58;100629.81;111271;242;39406;-53
2024/01/07 00:22:49;;;;;;;19.70;10.80;;;;;;;-6.14;82.66;100630.80;111303;242;40408;-53
2024/01/07 00:25:28;;;;;;;18.10;10.10;;;;;;;-6.17;82.74;100632.19;111273;242;41347;-53
2024/01/07 00:28:04;;;;;;;19.30;10.40;;;;;;;-6.16;82.83;100632.33;111291;242;39490;-53
2024/01/07 00:30:45;;;;;;;20.50;10.40;;;;;;;-6.17;82.90;100632.73;111300;242;39349;-54
2024/01/07 00:33:24;;;;;;;17.60;10.40;;;;;;;-6.17;83.07;100639.23;111333;242;39203;-54
2024/01/07 00:36:00;;;;;;;18.00;9.80;;;;;;;-6.17;83.10;100638.35;111370;242;39685;-57
2024/01/07 00:38:41;;;;;;;18.70;10.00;;;;;;;-6.18;83.16;100640.69;111278;242;39205;-57
2024/01/07 00:41:16;;;;;;;19.80;10.90;;;;;;;-6.17;83.19;100647.98;111352;242;39820;-58
2024/01/07 00:43:55;;;;;;;19.60;11.40;;;;;;;-6.20;83.20;100648.14;111320;242;40146;-57
2024/01/07 00:46:36;;;;;;;18.20;11.00;;;;;;;-6.21;83.36;100648.55;111315;242;38846;-57
2024/01/07 00:49:17;;;;;;;20.40;10.50;;;;;;;-6.19;83.39;100644.74;111315;242;40035;-57
2024/01/07 00:51:52;;;;;;;19.30;10.50;;;;;;;-6.22;83.49;100646.11;111321;242;40463;-55
2024/01/07 00:54:28;;;;;;;17.20;10.40;;;;;;;-6.20;83.44;100647.24;111285;242;39570;-54
2024/01/07 00:57:03;;;;;;;17.70;10.40;;;;;;;-6.18;83.69;100652.93;111090;242;38530;-57
2024/01/07 00:59:40;;;;;;;15.50;9.90;;;;;;;-6.16;83.73;100653.02;111309;242;40399;-56
2024/01/07 01:02:17;;;;;;;17.10;10.70;;;;;;;-6.17;83.83;100653.75;111262;242;39604;-56
2024/01/07 01:04:57;;;;;;;17.90;10.70;;;;;;;-6.16;83.78;100657.20;111318;242;40623;-55
2024/01/07 01:07:32;;;;;;;15.60;10.70;;;;;;;-6.16;83.73;100656.85;111276;242;39062;-54
2024/01/07 01:10:10;;;;;;;18.40;10.50;;;;;;;-6.16;83.86;100658.09;111287;242;40417;-56
2024/01/07 01:12:46;;;;;;;17.50;9.70;;;;;;;-6.13;83.82;100661.09;111295;242;38875;-56
2024/01/07 01:15:26;;;;;;;14.50;9.70;;;;;;;-6.10;83.80;100662.70;111287;242;39268;-53
2024/01/07 01:18:07;;;;;;;12.20;8.50;;;;;;;-6.06;83.87;100662.48;111300;242;39800;-53
2024/01/07 01:20:46;;;;;;;13.30;8.30;;;;;;;-6.01;84.05;100658.00;111337;242;40668;-54
2024/01/07 01:23:22;;;;;;;11.40;7.90;;;;;;;-5.96;84.01;100660.73;111278;242;39325;-54
2024/01/07 01:25:57;;;;;;;13.10;8.80;;;;;;;-5.94;84.01;100659.41;111349;242;39470;-56
2024/01/07 01:28:34;;;;;;;15.90;9.30;;;;;;;-5.93;84.00;100663.71;111133;242;39772;-56
2024/01/07 01:31:15;;;;;;;15.40;8.70;;;;;;;-5.92;84.02;100660.88;111118;242;41407;-54
2024/01/07 01:33:50;;;;;;;14.70;8.60;;;;;;;-5.93;83.95;100658.63;111335;242;40242;-53
2024/01/07 01:36:26;;;;;;;13.20;8.40;;;;;;;-5.93;84.06;100658.27;111105;242;39560;-54
2024/01/07 01:39:07;;;;;;;14.90;8.70;;;;;;;-5.93;84.13;100665.50;111301;242;39379;-54
2024/01/07 01:41:49;;;;;;;14.80;9.40;;;;;;;-5.92;84.20;100666.66;111306;242;39190;-55
2024/01/07 01:44:27;;;;;;;14.20;8.50;;;;;;;-5.87;84.21;100663.08;111300;242;40210;-54
2024/01/07 01:47:07;;;;;;;12.90;7.80;;;;;;;-5.85;84.28;100662.95;111303;242;39276;-53
2024/01/07 01:49:43;;;;;;;11.30;7.50;;;;;;;-5.84;84.27;100659.23;111332;242;39489;-55
2024/01/07 01:52:23;;;;;;;16.50;8.10;;;;;;;-5.85;84.24;100662.27;111331;242;39639;-55
2024/01/07 01:54:58;;;;;;;13.30;7.80;;;;;;;-5.87;84.28;100658.35;111324;242;38802;-55
2024/01/07 01:57:38;;;;;;;13.80;7.70;;;;;;;-5.93;84.25;100655.85;111277;243;39358;-56
2024/01/07 02:00:14;;;;;;;15.40;8.50;;;;;;;-5.96;84.29;100656.00;110905;243;39078;-56
2024/01/07 02:02:49;;;;;;;14.20;7.90;;;;;;;-6.02;84.34;100661.23;111217;242;40662;-56
2024/01/07 02:05:26;;;;;;;13.50;7.80;;;;;;;-6.02;84.35;100658.97;111275;242;39716;-56
2024/01/07 02:08:00;;;;;;;15.80;8.00;;;;;;;-5.99;84.32;100659.84;111229;242;39192;-57
2024/01/07 02:10:40;;;;;;;14.00;8.20;;;;;;;-5.97;84.39;100662.53;111264;242;41005;-54
2024/01/07 02:13:17;;;;;;;16.50;9.30;;;;;;;-5.94;84.43;100658.36;111243;242;40223;-54
2024/01/07 02:15:51;;;;;;;14.30;8.60;;;;;;;-5.91;84.39;100658.03;111290;242;39412;-54
2024/01/07 02:18:28;;;;;;;13.40;7.70;;;;;;;-5.91;84.27;100654.37;111256;242;41110;-54
2024/01/07 02:21:04;;;;;;;13.30;8.00;;;;;;;-5.95;84.24;100658.39;111289;242;39511;-55
2024/01/07 02:23:43;;;;;;;13.60;8.30;;;;;;;-6.01;84.24;100659.58;111234;242;39661;-55
2024/01/07 02:26:17;;;;;;;14.40;9.10;;;;;;;-6.03;84.22;100653.00;111298;242;39753;-53
2024/01/07 02:28:52;;;;;;;15.20;9.70;;;;;;;-6.05;84.22;100656.45;111254;242;38977;-53
2024/01/07 02:31:35;;;;;;;17.30;10.20;;;;;;;-6.08;84.10;100660.99;111223;242;39649;-54
2024/01/07 02:34:16;;;;;;;14.50;9.30;;;;;;;-6.10;84.03;100664.77;111222;242;39740;-53
2024/01/07 02:36:51;;;;;;;12.70;8.20;;;;;;;-6.16;84.07;100666.30;111198;242;39413;-54
2024/01/07 02:39:29;;;;;;;13.00;8.30;;;;;;;-6.16;84.02;100664.39;111210;242;40188;-54
2024/01/07 02:42:06;;;;;;;17.70;10.50;;;;;;;-6.21;84.10;100669.23;111270;242;39748;-57
2024/01/07 02:44:41;;;;;;;15.60;10.00;;;;;;;-6.18;83.99;100664.52;111222;242;40428;-56
2024/01/07 02:47:17;;;;;;;14.80;9.60;;;;;;;-6.20;84.10;100668.65;111244;242;39506;-57
2024/01/07 02:49:53;;;;;;;16.60;10.30;;;;;;;-6.21;84.09;100669.55;111275;242;39115;-55
2024/01/07 02:52:31;;;;;;;18.80;10.00;;;;;;;-6.24;83.97;100664.98;111270;242;39396;-56
2024/01/07 02:55:08;;;;;;;16.00;9.60;;;;;;;-6.25;84.02;100661.19;111284;242;39989;-57
2024/01/07 02:57:44;;;;;;;17.20;10.00;;;;;;;-6.29;84.06;100661.89;111309;242;40565;-56
2024/01/07 03:00:20;;;;;;;16.60;10.10;;;;;;;-6.33;84.06;100656.17;111256;242;38982;-56
2024/01/07 03:03:01;;;;;;;16.00;9.50;;;;;;;-6.29;84.03;100663.52;111301;242;39350;-57
2024/01/07 03:05:38;;;;;;;20.10;10.60;;;;;;;-6.31;83.91;100659.38;111316;242;38978;-56
2024/01/07 03:08:19;;;;;;;14.40;9.60;;;;;;;-6.37;84.02;100661.08;111249;242;39091;-56
2024/01/07 03:10:58;;;;;;;17.20;9.90;;;;;;;-6.40;83.99;100659.32;111233;242;39339;-55
2024/01/07 03:13:33;;;;;;;15.00;9.90;;;;;;;-6.35;83.99;100656.43;111228;242;40894;-56
2024/01/07 03:16:21;;;;;;;14.60;9.50;;;;;;;-6.36;84.01;100665.78;111250;242;39108;-54
2024/01/07 03:19:00;;;;;;;14.40;9.00;;;;;;;-6.41;83.95;100666.02;111260;242;39285;-54
2024/01/07 03:21:35;;;;;;;15.90;10.50;;;;;;;-6.41;83.98;100663.07;111265;242;39584;-56
2024/01/07 03:24:11;;;;;;;15.10;9.60;;;;;;;-6.43;83.88;100662.60;111254;242;41198;-56
2024/01/07 03:26:50;;;;;;;17.10;10.00;;;;;;;-6.42;84.02;100664.49;111240;242;40103;-54
2024/01/07 03:29:30;;;;;;;14.30;9.50;;;;;;;-6.43;84.01;100667.15;111194;242;39615;-53
2024/01/07 03:32:09;;;;;;;14.20;9.40;;;;;;;-6.41;84.05;100668.84;111237;242;39228;-57
2024/01/07 03:34:49;;;;;;;15.40;9.80;;;;;;;-6.43;84.00;100666.66;111226;242;39031;-55
2024/01/07 03:37:27;;;;;;;13.90;9.30;;;;;;;-6.46;83.89;100666.84;111233;242;40189;-56
2024/01/07 03:40:10;;;;;;;16.10;9.30;;;;;;;-6.43;83.83;100663.88;111290;242;41057;-57
2024/01/07 03:42:52;;;;;;;15.20;8.90;;;;;;;-6.44;83.85;100664.06;111253;242;39493;-56
2024/01/07 03:45:31;;;;;;;13.60;9.00;;;;;;;-6.54;83.81;100666.34;111275;242;40207;-53
2024/01/07 03:48:09;;;;;;;16.70;9.50;;;;;;;-6.54;83.84;100665.09;111350;242;39103;-54
2024/01/07 03:50:46;;;;;;;13.90;8.80;;;;;;;-6.50;83.85;100664.55;111275;242;40484;-54
2024/01/07 03:53:22;;;;;;;17.30;10.20;;;;;;;-6.49;83.88;100670.63;111293;242;40527;-54
2024/01/07 03:55:58;;;;;;;14.70;8.90;;;;;;;-6.51;83.76;100672.65;111264;242;39623;-56
2024/01/07 03:58:35;;;;;;;15.00;9.00;;;;;;;-6.62;83.76;100670.05;111218;242;39759;-57
2024/01/07 04:01:16;;;;;;;15.00;8.50;;;;;;;-6.67;83.80;100677.63;111282;242;39608;-56
2024/01/07 04:03:55;;;;;;;11.70;6.80;;;;;;;-6.71;83.79;100672.41;111237;242;39762;-57
2024/01/07 04:06:31;;;;;;;14.60;8.90;;;;;;;-6.68;83.82;100681.72;111237;242;40130;-58
2024/01/07 04:09:09;;;;;;;14.10;8.80;;;;;;;-6.65;83.88;100682.27;111266;242;40092;-56
2024/01/07 04:11:46;;;;;;;15.00;9.70;;;;;;;-6.68;83.75;100679.08;111249;242;40454;-57
2024/01/07 04:14:27;;;;;;;14.30;9.50;;;;;;;-6.74;83.73;100678.17;111210;242;38935;-56
2024/01/07 04:17:07;;;;;;;15.30;9.30;;;;;;;-6.78;83.72;100680.78;111240;242;39436;-54
2024/01/07 04:19:47;;;;;;;18.00;8.60;;;;;;;-6.73;83.77;100677.77;111260;242;39893;-56
2024/01/07 04:22:23;;;;;;;16.50;8.70;;;;;;;-6.70;83.80;100677.78;111272;242;39527;-56
2024/01/07 04:25:01;;;;;;;15.40;8.30;;;;;;;-6.72;83.72;100679.83;111292;242;38981;-56
2024/01/07 04:27:39;;;;;;;13.60;8.90;;;;;;;-6.71;83.70;100675.92;111288;242;39021;-56
2024/01/07 04:30:16;;;;;;;12.00;7.90;;;;;;;-6.76;83.67;100683.84;111243;242;40310;-56
2024/01/07 04:32:51;;;;;;;12.70;8.70;;;;;;;-6.82;83.72;100681.88;111311;242;39019;-56
2024/01/07 04:35:27;;;;;;;15.10;9.10;;;;;;;-6.85;83.59;100680.96;111257;242;39315;-54
2024/01/07 04:38:08;;;;;;;15.20;9.20;;;;;;;-6.80;83.60;100680.36;111229;242;39606;-53
2024/01/07 04:40:44;;;;;;;13.00;8.20;;;;;;;-6.74;83.70;100679.20;111253;242;39939;-53
2024/01/07 04:43:21;;;;;;;13.50;8.80;;;;;;;-6.70;83.61;100676.88;111253;242;39766;-54
2024/01/07 04:45:55;;;;;;;13.70;8.70;;;;;;;-6.69;83.56;100681.04;111233;242;40993;-54
2024/01/07 04:48:31;;;;;;;15.70;9.50;;;;;;;-6.71;83.64;100687.64;111234;242;39677;-54
2024/01/07 04:51:10;;;;;;;12.80;7.40;;;;;;;-6.76;83.52;100682.30;111254;242;39407;-53
2024/01/07 04:53:59;;;;;;;12.90;8.20;;;;;;;-6.82;83.67;100679.79;111274;242;39175;-53
2024/01/07 04:56:36;;;;;;;13.90;8.30;;;;;;;-6.83;83.72;100686.46;111241;242;39550;-54
2024/01/07 04:59:12;;;;;;;13.20;7.90;;;;;;;-6.80;83.76;100688.29;111236;242;39167;-54
2024/01/07 05:01:49;;;;;;;15.00;8.30;;;;;;;-6.85;83.75;100692.17;111231;242;39445;-53
2024/01/07 05:04:26;;;;;;;14.50;8.80;;;;;;;-6.83;83.83;100692.77;111256;242;40606;-53
2024/01/07 05:07:02;;;;;;;14.80;8.10;;;;;;;-6.82;83.72;100698.67;111274;242;41648;-53
2024/01/07 05:09:45;;;;;;;14.70;8.10;;;;;;;-6.77;83.66;100696.70;111325;242;39611;-55
2024/01/07 05:12:26;;;;;;;14.30;8.70;;;;;;;-6.72;83.73;100696.79;111243;242;42274;-54
2024/01/07 05:15:05;;;;;;;12.50;7.60;;;;;;;-6.76;83.73;100699.42;111233;242;39788;-55
2024/01/07 05:17:49;;;;;;;12.30;8.20;;;;;;;-6.77;83.60;100702.30;111193;242;39456;-54
2024/01/07 05:20:24;;;;;;;13.80;8.60;;;;;;;-6.84;83.53;100699.98;111253;242;39628;-57
2024/01/07 05:22:59;;;;;;;13.10;8.80;;;;;;;-6.86;83.51;100703.63;111246;242;39345;-57
2024/01/07 05:25:36;;;;;;;14.40;8.10;;;;;;;-6.92;83.44;100705.99;111262;242;39577;-55
2024/01/07 05:28:14;;;;;;;13.10;8.60;;;;;;;-6.96;83.35;100703.73;111253;242;39474;-55
2024/01/07 05:30:50;;;;;;;12.90;8.60;;;;;;;-6.98;83.41;100704.54;111277;242;39919;-55
2024/01/07 05:33:23;;;;;;;12.20;7.80;;;;;;;-6.97;83.38;100704.81;111215;242;39600;-55
2024/01/07 05:36:03;;;;;;;12.90;8.30;;;;;;;-6.97;83.38;100704.48;111278;242;39088;-54
2024/01/07 05:38:40;;;;;;;12.70;7.70;;;;;;;-6.95;83.34;100705.41;111259;242;39882;-53
2024/01/07 05:41:15;;;;;;;11.80;8.00;;;;;;;-6.96;83.17;100704.08;111288;242;39794;-57
2024/01/07 05:43:55;;;;;;;12.50;8.30;;;;;;;-7.01;83.25;100707.85;111249;242;39098;-57
2024/01/07 05:46:30;;;;;;;16.20;8.80;;;;;;;-7.07;83.30;100711.93;111288;242;39496;-57
2024/01/07 05:49:14;;;;;;;14.80;9.00;;;;;;;-7.08;83.30;100713.91;111266;242;39298;-57
2024/01/07 05:51:51;;;;;;;14.00;8.80;;;;;;;-7.07;83.29;100719.11;111334;242;39579;-58
2024/01/07 05:54:29;;;;;;;13.80;8.10;;;;;;;-7.02;83.31;100716.98;111268;242;40459;-57
2024/01/07 05:57:07;;;;;;;13.20;8.60;;;;;;;-7.00;83.25;100713.73;110759;242;590185;-54
2024/01/07 05:59:46;;;;;;;13.80;8.30;;;;;;;-6.97;83.29;100710.94;111298;242;40656;-56
2024/01/07 06:02:25;;;;;;;13.10;7.70;;;;;;;-6.97;83.30;100710.41;111254;242;39408;-58
2024/01/07 06:05:03;;;;;;;15.00;8.50;;;;;;;-6.93;83.26;100710.42;111225;242;39789;-54
2024/01/07 06:07:39;;;;;;;13.40;8.20;;;;;;;-6.94;83.33;100711.88;111218;242;41602;-54
2024/01/07 06:10:14;;;;;;;12.80;8.30;;;;;;;-6.92;83.27;100712.62;111280;242;40279;-54
2024/01/07 06:12:50;;;;;;;12.60;8.40;;;;;;;-6.87;83.29;100718.35;111266;242;39786;-54
2024/01/07 06:15:29;;;;;;;14.20;8.20;;;;;;;-6.83;83.34;100716.23;111236;242;40950;-55
2024/01/07 06:18:06;;;;;;;13.30;8.40;;;;;;;-6.81;83.31;100719.10;111227;242;39269;-54
2024/01/07 06:20:42;;;;;;;13.30;8.30;;;;;;;-6.81;83.33;100716.69;111279;242;39570;-57
2024/01/07 06:23:25;;;;;;;15.50;8.70;;;;;;;-6.77;83.32;100719.64;111268;242;39723;-54
2024/01/07 06:26:05;;;;;;;11.70;7.60;;;;;;;-6.77;83.32;100724.86;111280;242;40161;-58
2024/01/07 06:28:48;;;;;;;13.70;8.60;;;;;;;-6.72;83.28;100721.68;111257;242;39277;-58
2024/01/07 06:31:27;;;;;;;12.60;8.80;;;;;;;-6.69;83.27;100729.40;111262;242;40129;-62
2024/01/07 06:34:03;;;;;;;13.60;8.10;;;;;;;-6.70;83.28;100732.58;111255;242;39739;-56
2024/01/07 06:36:42;;;;;;;14.50;8.20;;;;;;;-6.72;83.13;100732.35;111281;242;40672;-53
2024/01/07 06:39:21;;;;;;;14.10;8.60;;;;;;;-6.75;83.26;100736.13;111283;242;39227;-53
2024/01/07 06:41:58;;;;;;;14.40;8.40;;;;;;;-6.72;83.22;100740.38;111279;242;40757;-54
2024/01/07 06:44:33;;;;;;;11.10;7.30;;;;;;;-6.64;83.15;100742.80;111250;242;39871;-54
2024/01/07 06:47:06;;;;;;;;;;;;;;;-6.60;82.97;100745.27;111232;242;40008;-57
2024/01/07 06:49:41;;;;;;;13.90;8.40;;;;;;;-6.62;82.87;100745.67;111240;242;39957;-54
2024/01/07 06:52:25;;;;;;;12.00;7.60;;;;;;;-6.60;82.91;100749.25;111238;242;39180;-55
2024/01/07 06:55:03;;;;;;;;;;;;;;;-6.61;82.94;100756.48;111272;242;40546;-54
2024/01/07 06:57:43;;;;;;;12.10;7.90;;;;;;;-6.61;82.88;100759.64;111321;242;41199;-54
2024/01/07 07:00:19;;;;;;;11.20;7.50;;;;;;;-6.61;82.87;100761.21;111203;242;39396;-54
2024/01/07 07:02:58;;;;;;;12.40;7.80;;;;;;;-6.65;82.79;100765.63;111143;243;39130;-54
2024/01/07 07:05:41;;;;;;;12.80;8.10;;;;;;;-6.70;82.67;100770.56;111081;243;39522;-54
2024/01/07 07:08:18;;;;;;;13.30;8.00;;;;;;;-6.68;82.64;100769.98;111126;243;40382;-54
2024/01/07 07:10:59;;;;;;;11.70;7.80;;;;;;;-6.66;82.59;100767.06;111149;243;39524;-57
2024/01/07 07:13:39;;;;;;;13.60;7.90;;;;;;;-6.60;82.53;100769.77;111109;243;39479;-57
2024/01/07 07:16:13;;;;;;;13.60;8.40;;;;;;;-6.59;82.63;100768.48;111112;243;38852;-54
2024/01/07 07:18:53;;;;;;;14.30;8.40;;;;;;;-6.66;82.71;100770.91;111092;243;40406;-54
2024/01/07 07:21:33;;;;;;;11.50;7.80;;;;;;;-6.66;82.74;100770.75;111114;243;39372;-55
2024/01/07 07:24:09;;;;;;;13.50;8.10;;;;;;;-6.63;82.62;100773.08;111057;243;39537;-57
2024/01/07 07:26:46;;;;;;;12.50;7.60;;;;;;;-6.63;82.58;100777.27;111073;243;40209;-54
2024/01/07 07:29:25;;;;;;;10.30;7.00;;;;;;;-6.67;82.61;100777.79;110947;243;39130;-54
2024/01/07 07:32:04;;;;;;;12.00;7.50;;;;;;;-6.65;82.68;100776.84;111067;243;39823;-56
2024/01/07 07:34:40;;;;;;;13.40;8.00;;;;;;;-6.58;82.73;100780.02;111078;243;39742;-58
2024/01/07 07:37:17;;;;;;;13.30;7.90;;;;;;;-6.50;82.81;100780.86;111056;243;41136;-54
2024/01/07 07:39:52;;;;;;;12.20;7.90;;;;;;;-6.44;82.66;100777.91;111039;243;39731;-57
2024/01/07 07:42:31;;;;;;;11.20;7.20;;;;;;;-6.42;82.58;100780.84;111088;243;40064;-54
2024/01/07 07:45:12;;;;;;;17.80;9.70;;;;;;;-6.43;82.52;100788.03;111048;243;39539;-57
2024/01/07 07:47:50;;;;;;;15.70;9.00;;;;;;;-6.40;82.57;100790.19;111120;243;40522;-57
2024/01/07 07:50:29;;;;;;;12.40;7.70;;;;;;;-6.36;82.45;100788.95;111163;243;41015;-58
2024/01/07 07:53:04;;;;;;;16.00;8.10;;;;;;;-6.31;82.55;100786.75;111284;243;40593;-58
2024/01/07 07:55:41;;;;;;;15.10;8.20;;;;;;;-6.24;82.52;100791.50;111289;243;38898;-58
2024/01/07 07:58:17;;;;;;;11.10;7.70;;;;;;;-6.21;82.52;100791.89;111299;242;40667;-58
2024/01/07 08:00:58;;;;;;;11.50;7.70;;;;;;;-6.16;82.41;100791.30;111269;243;38851;-55
2024/01/07 08:03:32;;;;;;;16.10;9.60;;;;;;;-6.12;82.30;100793.19;111251;243;39310;-55
2024/01/07 08:06:09;;;;;;;11.10;7.20;;;;;;;-6.06;82.29;100796.05;111288;243;39730;-55
2024/01/07 08:08:45;;;;;;;18.40;8.10;;;;;;;-6.02;82.19;100795.86;111293;243;39179;-55
2024/01/07 08:11:25;;;;;;;11.60;8.00;;;;;;;-5.98;82.09;100794.95;111157;243;39955;-55
2024/01/07 08:14:01;;;;;;;13.10;8.30;;;;;;;-6.02;82.06;100793.58;111261;243;39089;-55
2024/01/07 08:16:39;;;;;;;10.00;7.00;;;;;;;-5.99;82.17;100797.44;111282;243;40734;-55
2024/01/07 08:19:14;;;;;;;11.90;8.20;;;;;;;-5.95;82.05;100799.36;111237;243;39062;-55
2024/01/07 08:21:55;;;;;;;11.50;6.70;;;;;;;-5.90;81.97;100805.45;111122;243;39741;-57
2024/01/07 08:24:35;;;;;;;10.80;7.00;;;;;;;-5.83;81.87;100808.88;111212;243;39936;-58
2024/01/07 08:27:12;;;;;;;11.50;7.50;;;;;;;-5.85;81.57;100814.10;111248;243;39933;-54
2024/01/07 08:29:49;;;;;;;11.60;6.80;;;;;;;-5.92;81.24;100816.05;110981;243;39589;-53
2024/01/07 08:32:23;;;;;;;13.80;7.60;;;;;;;-5.94;81.28;100820.91;111293;243;40572;-57
2024/01/07 08:34:59;;;;;;;12.10;7.40;;;;;;;-5.89;81.37;100818.70;111317;243;39386;-57
2024/01/07 08:37:32;;;;;;;;;;;;;;;-5.85;81.10;100817.81;111335;243;40663;-57
2024/01/07 08:40:13;;;;;;;9.00;6.60;;;;;;;-5.83;81.21;100818.02;111230;243;39818;-57
2024/01/07 08:42:48;;;;;;;14.80;7.20;;;;;;;-5.87;81.13;100817.17;111285;242;39842;-57
2024/01/07 08:45:26;;;;;;;13.10;7.90;;;;;;;-5.86;81.16;100819.07;111232;243;39199;-57
2024/01/07 08:48:02;;;;;;;11.00;7.10;;;;;;;-5.85;81.20;100815.48;111210;243;39241;-56
2024/01/07 08:50:42;;;;;;;10.50;6.90;;;;;;;-5.79;81.26;100817.99;111206;243;39241;-58
2024/01/07 08:53:23;;;;;;;12.30;7.60;;;;;;;-5.80;81.18;100817.49;111230;243;40300;-54
2024/01/07 08:56:03;;;;;;;11.80;7.60;;;;;;;-5.76;81.05;100817.11;111213;243;39058;-54
2024/01/07 08:58:41;;;;;;;12.00;7.50;;;;;;;-5.72;80.96;100823.08;111235;242;40955;-53
2024/01/07 09:01:26;;;;;;;11.00;7.80;;;;;;;-5.70;80.99;100826.64;111246;242;39892;-56
2024/01/07 09:04:08;;;;;;;14.10;7.90;;;;;;;-5.70;80.96;100830.16;111211;242;39947;-57
2024/01/07 09:06:43;;;;;;;10.70;7.60;;;;;;;-5.72;80.97;100833.42;111255;242;39707;-54
2024/01/07 09:09:20;;;;;;;13.10;8.60;;;;;;;-5.71;80.73;100828.13;111263;242;40603;-54
2024/01/07 09:12:00;;;;;;;10.70;6.80;;;;;;;-5.76;80.69;100832.75;111267;242;39511;-56
2024/01/07 09:14:35;;;;;;;12.60;7.70;;;;;;;-5.68;80.78;100835.13;111254;242;39655;-59
2024/01/07 09:17:10;;;;;;;12.80;7.20;;;;;;;-5.63;80.65;100836.30;111333;242;40242;-53
2024/01/07 09:19:46;;;;;;;10.80;7.60;;;;;;;-5.67;80.39;100834.90;111322;242;39821;-54
2024/01/07 09:22:20;;;;;;;10.60;7.10;;;;;;;-5.75;80.26;100831.48;111321;242;39261;-57
2024/01/07 09:24:55;;;;;;;12.30;8.00;;;;;;;-5.68;80.41;100832.36;111269;242;39171;-59
2024/01/07 09:27:36;;;;;;;12.40;7.30;;;;;;;-5.63;80.41;100835.59;111239;242;40958;-57
2024/01/07 09:30:14;;;;;;;12.70;7.70;;;;;;;-5.67;80.08;100834.55;111270;242;39623;-57
2024/01/07 09:32:48;;;;;;;11.70;7.60;;;;;;;-5.59;80.39;100831.36;111283;242;38873;-56
2024/01/07 09:35:23;;;;;;;12.20;7.80;;;;;;;-5.46;80.37;100832.44;111223;242;39639;-56
2024/01/07 09:38:00;;;;;;;14.90;8.70;;;;;;;-5.44;80.18;100835.48;111281;242;39936;-56
2024/01/07 09:40:39;;;;;;;15.90;9.00;;;;;;;-5.46;79.80;100831.71;111235;242;39734;-56
2024/01/07 09:43:14;;;;;;;18.10;9.20;;;;;;;-5.57;79.87;100827.56;111251;242;39440;-57
2024/01/07 09:46:01;;;;;;;13.20;7.20;;;;;;;-5.58;79.67;100825.73;111245;242;40037;-54
2024/01/07 09:48:40;;;;;;;12.30;7.20;;;;;;;-5.68;79.52;100824.09;111194;242;39626;-54
2024/01/07 09:51:22;;;;;;;12.10;8.10;;;;;;;-5.66;79.74;100823.83;111274;242;39344;-54
2024/01/07 09:54:05;;;;;;;13.40;8.70;;;;;;;-5.60;79.50;100824.04;111266;242;39933;-54
2024/01/07 09:56:44;;;;;;;18.70;10.30;;;;;;;-5.64;79.45;100828.81;111279;242;39343;-58
2024/01/07 09:59:19;;;;;;;13.30;8.60;;;;;;;-5.65;79.44;100829.72;111237;242;39892;-58
2024/01/07 10:01:55;;;;;;;12.90;7.90;;;;;;;-5.65;79.18;100831.14;111289;242;40379;-54
2024/01/07 10:04:31;;;;;;;12.80;7.90;;;;;;;-5.73;79.44;100823.63;111312;242;39526;-55
2024/01/07 10:07:14;;;;;;;10.60;8.00;;;;;;;-5.63;79.40;100825.77;111241;242;39207;-57
2024/01/07 10:09:53;;;;;;;11.90;7.70;;;;;;;-5.63;79.15;100829.81;111281;242;39194;-53
2024/01/07 10:12:31;;;;;;;16.20;8.60;;;;;;;-5.61;79.34;100826.71;111289;242;39380;-58
2024/01/07 10:15:07;;;;;;;23.70;10.90;;;;;;;-5.59;79.26;100822.74;111271;242;39072;-57
2024/01/07 10:17:43;;;;;;;16.70;9.80;;;;;;;-5.55;79.30;100821.85;111308;242;40718;-58
2024/01/07 10:20:19;;;;;;;19.70;9.50;;;;;;;-5.45;79.34;100822.06;111349;242;40384;-58
2024/01/07 10:22:56;;;;;;;13.00;8.90;;;;;;;-5.50;79.03;100823.52;111236;242;39726;-56
2024/01/07 10:25:33;;;;;;;17.70;10.00;;;;;;;-5.47;79.14;100819.83;111239;242;39710;-57
2024/01/07 10:28:07;;;;;;;15.80;9.30;;;;;;;-5.43;79.09;100821.55;111267;242;39201;-57
2024/01/07 10:30:50;;;;;;;16.40;9.00;;;;;;;-5.40;78.97;100818.27;111254;242;38959;-54
2024/01/07 10:33:25;;;;;;;16.70;10.00;;;;;;;-5.49;78.73;100821.03;111228;242;39234;-58
2024/01/07 10:36:07;;;;;;;25.00;12.60;;;;;;;-5.40;78.87;100819.48;111280;242;39858;-55
2024/01/07 10:38:45;;;;;;;23.80;12.50;;;;;;;-5.29;79.01;100819.48;111259;242;39028;-60
2024/01/07 10:41:21;;;;;;;22.90;11.00;;;;;;;-5.28;79.07;100818.35;111240;242;39604;-55
2024/01/07 10:44:01;;;;;;;11.50;8.10;;;;;;;-5.27;79.18;100820.26;111200;242;39830;-55
2024/01/07 10:46:44;;;;;;;15.00;9.10;;;;;;;-5.33;79.21;100820.74;111226;242;39918;-55
2024/01/07 10:49:24;;;;;;;14.60;9.20;;;;;;;-5.38;79.10;100820.64;110981;242;39771;-54
2024/01/07 10:52:11;;;;;;;12.20;8.30;;;;;;;-5.40;79.15;100820.21;111290;242;40821;-57
2024/01/07 10:54:48;;;;;;;14.50;9.10;;;;;;;-5.41;79.14;100824.63;111296;242;39509;-58
2024/01/07 10:57:35;;;;;;;13.90;9.50;;;;;;;-5.42;79.28;100828.53;111278;242;39584;-55
2024/01/07 11:00:18;;;;;;;13.50;9.60;;;;;;;-5.46;78.80;100829.81;111254;242;40033;-59
2024/01/07 11:03:09;;;;;;;12.30;8.80;;;;;;;-5.47;79.04;100825.32;111265;242;40698;-57
2024/01/07 11:06:07;;;;;;;13.70;9.30;;;;;;;-5.46;79.09;100825.40;111270;242;39372;-55
2024/01/07 11:08:57;;;;;;;12.90;9.00;;;;;;;-5.49;79.01;100822.23;111240;242;40004;-58
2024/01/07 11:11:38;;;;;;;13.50;8.80;;;;;;;-5.52;78.78;100826.98;111257;242;39604;-57
2024/01/07 11:14:39;;;;;;;14.70;8.30;;;;;;;-5.59;78.67;100823.09;111235;242;39440;-57
2024/01/07 11:17:35;;;;;;;13.80;9.10;;;;;;;-5.60;78.74;100822.98;111234;242;39604;-57
2024/01/07 11:20:20;;;;;;;14.70;9.10;;;;;;;-5.59;78.83;100822.57;111180;242;39738;-57
2024/01/07 11:23:14;;;;;;;15.40;9.40;;;;;;;-5.56;78.80;100821.20;111279;242;39874;-57
2024/01/07 11:25:51;;;;;;;13.70;9.20;;;;;;;-5.50;78.84;100820.37;111289;242;40200;-56
2024/01/07 11:28:53;;;;;;;12.60;8.00;;;;;;;-5.48;78.77;100824.48;111250;242;39654;-57
2024/01/07 11:31:48;;;;;;;14.40;8.70;;;;;;;-5.60;78.82;100825.59;111279;242;39875;-54
2024/01/07 11:34:49;;;;;;;13.30;8.50;;;;;;;-5.58;78.68;100823.06;111245;242;40976;-54
2024/01/07 11:37:27;;;;;;;12.00;8.10;;;;;;;-5.56;78.67;100821.71;111286;242;39159;-56
2024/01/07 11:40:05;;;;;;;13.40;8.40;;;;;;;-5.53;78.50;100820.33;111100;242;42971;-56
2024/01/07 11:42:39;;;;;;;15.00;8.60;;;;;;;-5.54;78.67;100819.17;111263;242;40207;-53
2024/01/07 11:45:16;;;;;;;13.20;8.30;;;;;;;-5.52;78.71;100817.99;111306;242;39994;-53
2024/01/07 11:47:53;;;;;;;13.20;8.30;;;;;;;-5.46;78.47;100820.88;111239;242;39273;-56
2024/01/07 11:50:33;;;;;;;11.90;8.30;;;;;;;-5.46;78.43;100825.06;111263;242;39353;-56
2024/01/07 11:53:12;;;;;;;10.30;7.40;;;;;;;-5.53;78.22;100825.81;111248;242;39603;-56
2024/01/07 11:55:50;;;;;;;14.30;8.00;;;;;;;-5.61;78.26;100828.81;111219;242;39517;-55
2024/01/07 11:58:27;;;;;;;11.70;7.70;;;;;;;-5.63;78.26;100826.46;111229;242;39208;-57
2024/01/07 12:01:03;;;;;;;13.50;7.40;;;;;;;-5.67;78.13;100825.45;111300;242;39683;-53
2024/01/07 12:03:44;;;;;;;11.70;7.40;;;;;;;-5.65;78.02;100826.25;111244;242;40255;-53
2024/01/07 12:06:23;;;;;;;14.30;8.80;;;;;;;-5.69;78.09;100827.48;111253;242;41105;-53
2024/01/07 12:08:56;;;;;;;16.50;9.30;;;;;;;-5.63;78.22;100828.42;111248;242;41559;-53